Ana Sayfa
METAR-TAF:

METAR-TAF

Havaalanları :

Dedeağaç, Yunanistan

Enlem: 40-51N, Boylam: 025-55E, yükseklik: 7 m

Güncel hava durumu gözlemi

Rapor saat 16:20 UTC de 28 dakika önce yapıldı.
Rüzgar kuzeydoğudan 4 kt
Sıcaklık 17°C
Nem 63%
Basınç 1015 hPa
Görüş mesafesi 10 km veya daha fazla
3000 ft yükseklikte parçalı bulutlu

METAR: LGAL 231620Z 04004KT 9999 SCT030 17/10 Q1015

Saat: 19:48 (16:48 UTC)

Tahmin

Rapor saat 14:00 UTC de 2 saat ve 48 dakika önce yapıldı.
Ayın 23'si saat 15 UTC'den ayın 23'si saat 24 UTC'ye kadar geçerli Tahmin
Rüzgar kuzey/kuzeydoğudan 12 kt
Görüş mesafesi 10 km veya daha fazla
1500 ft yükseklikte az bulutlu
3000 ft yükseklikte parçalı bulutlu
Dönüşüyor
ayın 23'si saat 22 UTC'den ayın 23'si saat 24 UTC'ye kadar
Rüzgar değişken yönden 5 kt

TAF: LGAL 231400Z 2315/2324 03012KT 9999 FEW015 SCT030 BECMG 2322/2324 VRB05KT

4.000'den fazla havaalanı için hava durumu gözlemleri ve tahminleri (METAR ve TAF raporları).

Kullanılabilir istasyonlar harita üzerinde sarı ve kırmızı noktalarla gösterilir.

İstasyonun adını görmek için fareyi noktanın üzerinde gezdirin.

Sonrasında hava gözlem ve tahminlerini görmek için tıklayın.

Haritayı değiştirmek için: yaklaştırmak için siyah artı işaretli yeşil düğmeye ve uzaklaştırmak için de eksi işaretli düğmeye hızla tıklayın; bitişik haritalar için yeşil okları kullanın.


METAR-TAF: